Weather observations for the past three days for
Sanford, Sanford Regional Airport
| Date | Time (edt) | Wind (kph) | Vis. (km) | Weather | Sky Cond. | Temperature (ºC) | Relative Humidity | Wind Chill (°C) | Heat Index (°C) | Pressure | Precipitation (cm) | ||||||
|---|---|---|---|---|---|---|---|---|---|---|---|---|---|---|---|---|---|
| Air | Dwpt | 6 hour | altimeter (cm) | sea level (mb) | 1 hr | 3 hr | 6 hr | ||||||||||
| Max. | Min. | ||||||||||||||||
| 06 | 11:56 | NW 13 | 16.09 | A Few Clouds | FEW047 | 20 | 8.3 | 47% | 76.17 | 1015.6 | |||||||
| 06 | 10:56 | N 19 | 16.09 | A Few Clouds | FEW026 | 18.9 | 11.7 | 63% | 76.2 | 1016.1 | |||||||
| 06 | 09:56 | NW 11 | 16.09 | Overcast | SCT014 OVC021 | 16.1 | 12.8 | 81% | 76.23 | 1016.4 | |||||||
| 06 | 08:56 | N 9 | 16.09 | Overcast | OVC017 | 15 | 12.8 | 87% | 76.2 | 1016.2 | |||||||
| 06 | 07:56 | N 9 | 16.09 | Light Rain | SCT017 SCT070 OVC085 | 13.9 | 12.8 | 14.4 | 10.6 | 93% | 76.2 | 1016.2 | |||||
| 06 | 06:56 | N 7 | 16.09 | Light Rain | BKN080 OVC100 | 13.3 | 12.2 | 93% | 76.15 | 1015.6 | |||||||
| 06 | 05:56 | Calm | 16.09 | Overcast | SCT032 OVC110 | 10.6 | 10.6 | 100% | 76.12 | 1015.3 | |||||||
| 06 | 04:56 | Calm | 16.09 | Overcast | BKN085 OVC110 | 12.2 | 11.7 | 97% | 76.1 | 1014.6 | |||||||
| 06 | 03:56 | NW 7 | 16.09 | Light Rain | FEW055 BKN080 OVC110 | 12.8 | 11.7 | 93% | 76.07 | 1014.6 | |||||||
| 06 | 02:56 | N 6 | 16.09 | Overcast | OVC110 | 13.9 | 11.7 | 87% | 76.07 | 1014.2 | |||||||
| 06 | 01:56 | Calm | 16.09 | Partly Cloudy | SCT100 | 11.7 | 11.1 | 17.2 | 10.6 | 96% | 76.05 | 1014.2 | |||||
| 06 | 00:56 | Calm | 16.09 | Fair | CLR | 12.2 | 10.6 | 90% | 76.07 | 1014.5 | |||||||
| 05 | 23:56 | NE 9 | 16.09 | Mostly Cloudy | BKN049 | 15 | 11.1 | 78% | 76.05 | 1014.1 | |||||||
| 05 | 22:56 | NE 15 | 16.09 | A Few Clouds | FEW045 | 16.1 | 12.2 | 78% | 76.02 | 1013.6 | |||||||
| 05 | 21:56 | E 6 | 16.09 | Overcast | OVC080 | 15.6 | 14.4 | 93% | 76 | 1013.4 | |||||||
| 05 | 20:56 | Calm | 16.09 | Mostly Cloudy | BKN080 | 16.1 | 15.6 | 97% | 76.02 | 1013.6 | |||||||
| 05 | 19:56 | Calm | 16.09 | Overcast | BKN050 BKN075 OVC090 | 17.2 | 16.1 | 22.8 | 17.2 | 93% | 75.97 | 1013.0 | |||||
| 05 | 18:56 | Calm | 16.09 | Overcast | BKN050 OVC075 | 18.9 | 16.1 | 84% | 75.95 | 1012.7 | |||||||
| 05 | 17:56 | SE 7 | 16.09 | Overcast | SCT039 SCT050 OVC070 | 20 | 16.1 | 78% | 75.9 | 1012.3 | |||||||
| 05 | 16:56 | N 20 | 16.09 | Overcast | OVC060 | 21.7 | 13.3 | 59% | 75.84 | 1011.4 | |||||||
| 05 | 15:56 | N 15 | 16.09 | Overcast | FEW036 OVC050 | 21.7 | 13.3 | 59% | 75.82 | 1011.1 | |||||||
| 05 | 13:56 | E 15 | 16.09 | Light Rain | FEW026 BKN036 OVC046 | 19.4 | 13.9 | 21.7 | 17.2 | 71% | 75.84 | 1011.5 | |||||
| 05 | 12:56 | N 17 | 16.09 | Overcast | OVC055 | 21.1 | 15 | 68% | 75.82 | 1010.9 | |||||||
| 05 | 11:56 | N 13 | 16.09 | Overcast | FEW024 OVC047 | 20.6 | 15 | 70% | 75.84 | 1011.4 | |||||||
| 05 | 10:56 | N 15 | 16.09 | Light Rain | OVC021 | 18.9 | 15 | 78% | 75.84 | 1011.3 | |||||||
| 05 | 09:56 | N 19 | 16.09 | Overcast | OVC037 | 20 | 15 | 73% | 75.79 | 1010.6 | |||||||
| 05 | 08:56 | N 11 | 16.09 | Overcast | OVC041 | 18.3 | 15 | 81% | 75.77 | 1010.2 | |||||||
| 05 | 07:56 | N 7 | 16.09 | Mostly Cloudy | BKN039 | 17.2 | 15 | 17.2 | 11.7 | 87% | 75.74 | 1010.0 | |||||
| 05 | 06:56 | Calm | 16.09 | Fair | CLR | 12.8 | 12.2 | 96% | 75.72 | 1009.7 | |||||||
| 05 | 05:56 | Calm | 14.48 | A Few Clouds | FEW080 | 12.2 | 11.7 | 97% | 75.67 | 1009.0 | |||||||
| 05 | 04:56 | NW 6 | 16.09 | Fair | CLR | 12.2 | 12.2 | 100% | 75.64 | 1008.5 | |||||||
| 05 | 03:56 | Calm | 14.48 | Fair | CLR | 12.2 | 11.7 | 97% | 75.64 | 1008.5 | |||||||
| 05 | 02:56 | SW 6 | 14.48 | Mostly Cloudy | BKN110 | 13.3 | 12.8 | 97% | 75.64 | 1008.6 | |||||||
| 05 | 01:56 | Calm | 16.09 | Overcast | OVC110 | 13.9 | 13.3 | 22.2 | 12.8 | 96% | 75.67 | 1008.8 | |||||
| 05 | 00:56 | E 6 | 16.09 | A Few Clouds | FEW085 | 13.3 | 12.8 | 97% | 75.67 | 1009.0 | |||||||
| 04 | 23:56 | Calm | 16.09 | Mostly Cloudy | SCT090 BKN110 | 15 | 13.9 | 93% | 75.67 | 1009.1 | |||||||
| 04 | 22:56 | Calm | 16.09 | Partly Cloudy | FEW095 SCT110 | 15.6 | 14.4 | 93% | 75.69 | 1009.2 | |||||||
| 04 | 21:56 | W 6 | 16.09 | Mostly Cloudy | BKN120 | 20 | 13.9 | 68% | 75.69 | 1009.3 | |||||||
| 04 | 20:56 | NW 13 | 16.09 | Mostly Cloudy | BKN110 | 21.7 | 13.3 | 59% | 75.69 | 1009.3 | |||||||
| 04 | 19:56 | NW 7 | 16.09 | Mostly Cloudy | BKN110 | 22.2 | 14.4 | 27.2 | 21.7 | 61% | 75.69 | 1009.2 | |||||
| 04 | 18:56 | W 11 | 16.09 | Partly Cloudy | SCT100 | 22.2 | 15.6 | 66% | 75.67 | 1008.8 | |||||||
| 04 | 17:56 | Vrbl 7 | 16.09 | Overcast | BKN080 OVC100 | 25.6 | 14.4 | 50% | 26 | 75.67 | 1008.8 | ||||||
| 04 | 16:56 | Calm | 16.09 | Overcast | OVC060 | 23.9 | 18.9 | 74% | 25 | 75.64 | 1008.6 | ||||||
| 04 | 15:56 | S 7 | 16.09 | Overcast | BKN050 BKN055 OVC070 | 24.4 | 19.4 | 74% | 25 | 75.62 | 1008.4 | ||||||
| 04 | 14:56 | Calm | 16.09 | Fair | CLR | 26.7 | 17.2 | 56% | 27 | 75.64 | 1008.5 | ||||||
| 04 | 13:56 | Calm | 16.09 | Overcast | FEW032 OVC070 | 23.3 | 19.4 | 27.8 | 18.3 | 79% | 75.67 | 1009.0 | |||||
| 04 | 12:56 | SE 9 | 16.09 | Mostly Cloudy | SCT039 BKN047 BKN060 | 23.9 | 19.4 | 76% | 24 | 75.67 | 1009.0 | ||||||
| 04 | 11:56 | Calm | 16.09 | Mostly Cloudy | FEW034 SCT041 BKN048 | 26.7 | 17.8 | 58% | 28 | 75.69 | 1009.1 | ||||||
| 04 | 10:56 | NW 6 | 16.09 | A Few Clouds | FEW025 | 26.1 | 18.9 | 65% | 27 | 75.72 | 1009.8 | ||||||
| 04 | 09:56 | Calm | 16.09 | A Few Clouds | FEW012 | 22.8 | 18.9 | 79% | 75.74 | 1010.0 | |||||||
| 04 | 08:56 | Calm | 16.09 | Overcast | OVC005 | 20 | 18.3 | 90% | 75.77 | 1010.3 | |||||||
| 04 | 07:56 | Calm | 16.09 | Overcast | OVC003 | 18.3 | 17.8 | 18.3 | 17.8 | 97% | 75.77 | 1010.5 | |||||
| 04 | 06:56 | Calm | 9.66 | Fog/Mist | OVC003 | 17.8 | 17.8 | 100% | 75.74 | 1010.0 | |||||||
| 04 | 05:56 | W 7 | 2.82 | Fog/Mist | OVC003 | 17.8 | 17.8 | 100% | 75.74 | 1010.0 | |||||||
| 04 | 04:56 | Calm | 0.80 | Fog | OVC003 | 17.8 | 17.8 | 100% | 75.74 | 1010.1 | |||||||
| 04 | 03:56 | SW 7 | 2.41 | Fog/Mist | OVC003 | 17.8 | 17.8 | 100% | 75.74 | 1010.0 | |||||||
| 04 | 02:56 | SW 7 | 16.09 | Overcast | OVC005 | 17.8 | 17.8 | 100% | 75.77 | 1010.4 | |||||||
| 04 | 01:56 | Calm | 16.09 | Overcast | OVC011 | 17.8 | 17.8 | 18.3 | 17.8 | 100% | 75.82 | 1011.1 | |||||
| 04 | 00:56 | Calm | 16.09 | Overcast | OVC009 | 17.8 | 17.2 | 96% | 75.87 | 1011.6 | |||||||
| 03 | 23:56 | Calm | 16.09 | Overcast | OVC012 | 18.3 | 17.8 | 97% | 75.9 | 1012.2 | |||||||
| 03 | 22:56 | Calm | 12.87 | Overcast | OVC011 | 18.3 | 17.8 | 97% | 75.92 | 1012.4 | |||||||
| 03 | 21:56 | Calm | 16.09 | Overcast | OVC008 | 18.3 | 17.8 | 97% | 75.95 | 1012.9 | |||||||
| 03 | 20:56 | NE 6 | 16.09 | Overcast | OVC014 | 18.3 | 17.8 | 97% | 75.95 | 1012.8 | |||||||
| 03 | 19:56 | Calm | 16.09 | Overcast | FEW004 OVC016 | 18.3 | 17.8 | 19.4 | 17.8 | 97% | 75.92 | 1012.3 | |||||
| 03 | 18:56 | NE 6 | 16.09 | Overcast | SCT006 OVC014 | 18.3 | 17.8 | 97% | 75.92 | 1012.5 | |||||||
| 03 | 17:56 | NE 7 | 16.09 | Overcast | OVC006 | 18.9 | 17.8 | 93% | 75.95 | 1012.7 | |||||||
| 03 | 16:56 | NE 6 | 16.09 | Overcast | OVC008 | 19.4 | 17.8 | 91% | 75.95 | 1012.8 | |||||||
| 03 | 15:56 | N 9 | 16.09 | Overcast | BKN010 OVC013 | 19.4 | 17.2 | 87% | 75.97 | 1013.2 | |||||||
| 03 | 14:56 | NE 11 | 16.09 | Overcast | OVC010 | 19.4 | 17.8 | 91% | 76 | 1013.4 | |||||||
| 03 | 13:56 | Calm | 16.09 | Overcast | SCT008 OVC016 | 19.4 | 17.2 | 19.4 | 16.1 | 87% | 76.05 | 1014.0 | |||||
| 03 | 12:56 | Calm | 8.05 | Fog/Mist | OVC006 | 18.3 | 17.2 | 93% | 76.05 | 1014.2 | |||||||
| Date | Time (edt) | Wind (kph) | Vis. (km) | Weather | Sky Cond. | Air | Dwpt | Max. | Min. | Relative Humidity | Wind Chill (°C) | Heat Index (°C) | altimeter (cm) | sea level (mb) | 1 hr | 3 hr | 6 hr |
| 6 hour | |||||||||||||||||
| Temperature (ºC) | Pressure | Precipitation (cm) | |||||||||||||||